createdAt,value
2019-04-16T00:01:14.038Z,49.00
2019-04-16T00:03:47.104Z,49.40
2019-04-16T00:06:23.239Z,49.00
2019-04-16T00:08:58.208Z,49.60
2019-04-16T00:12:01.778Z,49.20
2019-04-16T00:14:35.175Z,49.10
2019-04-16T00:17:04.663Z,49.50
2019-04-16T00:19:35.290Z,49.50
2019-04-16T00:22:36.040Z,48.80
2019-04-16T00:25:05.811Z,50.60
2019-04-16T00:27:35.344Z,50.00
2019-04-16T00:30:05.795Z,50.40
2019-04-16T00:32:38.047Z,50.40
2019-04-16T00:35:07.090Z,51.00
2019-04-16T00:37:36.576Z,51.20
2019-04-16T00:40:06.374Z,51.00
2019-04-16T00:42:35.850Z,50.70
2019-04-16T00:45:06.902Z,50.80
2019-04-16T00:47:36.372Z,50.80
2019-04-16T00:50:06.669Z,51.20
2019-04-16T00:52:36.977Z,51.10
2019-04-16T00:55:07.490Z,51.10
2019-04-16T00:57:37.012Z,50.90
2019-04-16T01:00:07.387Z,51.40
2019-04-16T01:02:36.846Z,51.70
2019-04-16T01:05:06.617Z,51.80
2019-04-16T01:07:36.164Z,52.00
2019-04-16T01:10:05.771Z,51.90
2019-04-16T01:12:35.195Z,52.00
2019-04-16T01:15:05.839Z,52.20
2019-04-16T01:17:36.018Z,52.10
2019-04-16T01:20:11.585Z,51.90
2019-04-16T01:22:37.888Z,52.00
2019-04-16T01:25:07.403Z,52.20
2019-04-16T01:27:40.361Z,52.00
2019-04-16T01:30:11.466Z,51.30
2019-04-16T01:32:51.933Z,51.00
2019-04-16T01:35:43.408Z,51.00
2019-04-16T01:38:47.117Z,52.20
2019-04-16T01:41:21.703Z,52.40
2019-04-16T01:43:48.618Z,51.50
2019-04-16T01:46:18.060Z,51.70
2019-04-16T01:48:47.711Z,52.10
2019-04-16T01:51:17.255Z,52.70
2019-04-16T01:53:49.410Z,52.80
2019-04-16T01:56:18.019Z,53.00
2019-04-16T01:58:47.565Z,53.40
2019-04-16T02:01:17.123Z,53.00
2019-04-16T02:03:48.849Z,52.10
2019-04-16T02:06:17.854Z,52.30
2019-04-16T02:08:47.379Z,53.00
2019-04-16T02:11:17.088Z,52.60
2019-04-16T02:13:46.970Z,52.30
2019-04-16T02:16:16.559Z,52.60
2019-04-16T02:18:46.130Z,52.50
2019-04-16T02:21:15.660Z,52.30
2019-04-16T02:23:48.060Z,53.40
2019-04-16T02:26:16.720Z,52.70
2019-04-16T02:28:46.225Z,53.20
2019-04-16T02:31:16.432Z,53.20
2019-04-16T02:33:46.076Z,52.50
2019-04-16T02:36:15.645Z,52.70
2019-04-16T02:38:52.303Z,53.30
2019-04-16T02:41:16.345Z,52.80
2019-04-16T02:43:45.896Z,54.30
2019-04-16T02:46:15.451Z,54.10
2019-04-16T02:48:50.233Z,54.20
2019-04-16T02:51:39.858Z,53.70
2019-04-16T02:54:11.600Z,53.70
2019-04-16T02:57:06.520Z,52.90
2019-04-16T02:59:38.433Z,53.40
2019-04-16T03:02:25.261Z,53.40
2019-04-16T03:05:04.013Z,54.60
2019-04-16T03:07:33.927Z,53.80
2019-04-16T03:10:03.477Z,54.10
2019-04-16T03:12:32.991Z,54.80
2019-04-16T03:15:02.812Z,53.70
2019-04-16T03:17:39.567Z,53.40
2019-04-16T03:20:11.380Z,54.80
2019-04-16T03:22:40.891Z,54.00
2019-04-16T03:25:13.834Z,54.10
2019-04-16T03:27:42.097Z,53.80
2019-04-16T03:30:11.584Z,54.70
2019-04-16T03:32:53.183Z,55.00
2019-04-16T03:35:25.783Z,54.80
2019-04-16T03:37:53.808Z,55.00
2019-04-16T03:40:25.489Z,54.80
2019-04-16T03:42:58.885Z,54.90
2019-04-16T03:45:26.206Z,54.70
2019-04-16T03:47:55.683Z,54.70
2019-04-16T03:50:25.178Z,54.00
2019-04-16T03:52:54.622Z,54.30
2019-04-16T03:55:26.263Z,54.40
2019-04-16T03:57:55.315Z,54.20
2019-04-16T04:00:24.744Z,55.00
2019-04-16T04:02:55.138Z,55.10
2019-04-16T04:05:25.004Z,55.10
2019-04-16T04:07:55.480Z,55.00
2019-04-16T04:10:30.881Z,55.20
2019-04-16T04:12:56.197Z,55.40
2019-04-16T04:15:26.308Z,55.20
2019-04-16T04:17:56.736Z,55.30
2019-04-16T04:20:26.287Z,55.10
2019-04-16T04:22:57.201Z,55.30
2019-04-16T04:25:26.971Z,55.50
2019-04-16T04:27:56.515Z,54.30
2019-04-16T04:30:28.838Z,55.10
2019-04-16T04:32:57.519Z,55.00
2019-04-16T04:35:27.063Z,55.10
2019-04-16T04:37:56.587Z,55.00
2019-04-16T04:40:26.136Z,54.90
2019-04-16T04:42:57.672Z,54.60
2019-04-16T04:45:26.891Z,55.20
2019-04-16T04:47:56.438Z,54.80
2019-04-16T04:50:25.978Z,54.80
2019-04-16T04:52:55.651Z,54.90
2019-04-16T04:55:26.919Z,53.70
2019-04-16T04:57:56.568Z,54.10
2019-04-16T05:00:26.112Z,54.00
2019-04-16T05:02:55.639Z,55.00
2019-04-16T05:05:41.524Z,55.40
2019-04-16T05:08:11.156Z,55.40
2019-04-16T05:10:43.263Z,55.40
2019-04-16T05:13:11.805Z,55.90
2019-04-16T05:15:41.312Z,56.50
2019-04-16T05:18:11.088Z,56.40
2019-04-16T05:20:40.646Z,56.10
2019-04-16T05:23:10.157Z,56.20
2019-04-16T05:25:39.620Z,56.60
2019-04-16T05:28:11.760Z,57.20
2019-04-16T05:30:40.407Z,56.60
2019-04-16T05:33:10.137Z,56.00
2019-04-16T05:35:41.544Z,55.90
2019-04-16T05:38:10.950Z,57.20
2019-04-16T05:40:40.397Z,57.60
2019-04-16T05:43:11.760Z,57.30
2019-04-16T05:45:41.313Z,58.10
2019-04-16T05:48:11.343Z,57.10
2019-04-16T05:50:41.207Z,56.80
2019-04-16T05:53:13.180Z,57.10
2019-04-16T05:56:03.671Z,56.80
2019-04-16T05:58:33.204Z,56.60
2019-04-16T06:01:07.084Z,56.80
2019-04-16T06:03:37.024Z,56.20
2019-04-16T06:06:06.582Z,55.50
2019-04-16T06:08:40.648Z,54.60
2019-04-16T06:11:07.831Z,53.80
2019-04-16T06:13:54.725Z,54.00
2019-04-16T06:16:41.634Z,54.10
2019-04-16T06:19:33.887Z,53.70
2019-04-16T06:22:28.309Z,52.60
2019-04-16T06:25:20.383Z,53.70
2019-04-16T06:28:04.757Z,52.60
2019-04-16T06:30:50.485Z,51.50
2019-04-16T06:33:42.832Z,51.90
2019-04-16T06:36:38.421Z,51.80
2019-04-16T06:39:39.740Z,50.50
2019-04-16T06:42:28.265Z,49.30
2019-04-16T06:45:01.722Z,48.80
2019-04-16T06:47:41.822Z,48.40
2019-04-16T06:50:30.695Z,48.40
2019-04-16T06:53:11.678Z,47.40
2019-04-16T06:55:53.865Z,47.00
2019-04-16T06:58:31.244Z,48.90
2019-04-16T07:01:22.287Z,47.00
2019-04-16T07:04:06.615Z,46.00
2019-04-16T07:06:44.205Z,45.30
2019-04-16T07:09:41.416Z,44.90
2019-04-16T07:12:15.698Z,46.80
2019-04-16T07:14:50.830Z,45.40
2019-04-16T07:17:22.466Z,45.00
2019-04-16T07:19:51.986Z,44.60
2019-04-16T07:22:22.227Z,45.30
2019-04-16T07:25:03.829Z,44.70
2019-04-16T07:27:42.046Z,44.50
2019-04-16T07:30:23.179Z,45.00
2019-04-16T07:33:11.473Z,45.40
2019-04-16T07:35:55.300Z,44.90
2019-04-16T07:38:28.625Z,44.60
2019-04-16T07:41:34.848Z,45.20
2019-04-16T07:44:11.318Z,44.20
2019-04-16T07:47:02.428Z,43.70
2019-04-16T07:50:01.368Z,43.70
2019-04-16T07:52:35.153Z,43.50
2019-04-16T07:55:18.746Z,43.40
2019-04-16T07:57:48.109Z,45.30
2019-04-16T08:00:17.710Z,45.00
2019-04-16T08:02:47.187Z,44.40
2019-04-16T08:05:16.614Z,44.40
2019-04-16T08:07:46.106Z,43.20
2019-04-16T08:10:16.924Z,44.00
2019-04-16T08:12:49.777Z,44.10
2019-04-16T08:15:19.077Z,44.30
2019-04-16T08:17:48.756Z,44.10
2019-04-16T08:20:20.927Z,44.70
2019-04-16T08:22:53.425Z,45.10
2019-04-16T08:25:27.418Z,43.50
2019-04-16T08:27:56.778Z,43.80
2019-04-16T08:30:26.294Z,44.50
2019-04-16T08:32:55.857Z,42.90
2019-04-16T08:35:25.192Z,42.00
2019-04-16T08:37:57.814Z,41.50
2019-04-16T08:40:25.811Z,42.00
2019-04-16T08:42:57.260Z,42.40
2019-04-16T08:45:26.739Z,42.20
2019-04-16T08:47:56.809Z,42.40
2019-04-16T08:50:26.974Z,41.70
2019-04-16T08:52:56.373Z,43.00
2019-04-16T08:55:25.725Z,42.80
2019-04-16T08:57:55.105Z,41.90
2019-04-16T09:00:25.747Z,42.90
2019-04-16T09:02:58.707Z,43.60
2019-04-16T09:05:26.574Z,44.60
2019-04-16T09:08:10.918Z,42.00
2019-04-16T09:10:30.930Z,44.00
2019-04-16T09:13:04.797Z,42.90
2019-04-16T09:15:35.375Z,42.20
2019-04-16T09:18:22.102Z,43.20
2019-04-16T09:20:51.437Z,41.10
2019-04-16T09:23:22.819Z,41.30
2019-04-16T09:26:23.888Z,42.30
2019-04-16T09:29:24.732Z,42.00
2019-04-16T09:32:14.531Z,40.70
2019-04-16T09:35:10.138Z,40.70
2019-04-16T09:37:42.317Z,42.60
2019-04-16T09:40:29.424Z,41.00
2019-04-16T09:42:59.565Z,41.80
2019-04-16T09:45:28.914Z,43.00
2019-04-16T09:47:58.237Z,43.00
2019-04-16T09:50:27.651Z,40.30
2019-04-16T09:52:57.082Z,40.50
2019-04-16T09:55:27.093Z,40.30
2019-04-16T09:57:57.952Z,39.90
2019-04-16T10:00:32.164Z,40.30
2019-04-16T10:03:11.453Z,39.70
2019-04-16T10:05:40.841Z,39.00
2019-04-16T10:08:12.622Z,42.00
2019-04-16T10:10:41.612Z,40.90
2019-04-16T10:13:11.010Z,42.50
2019-04-16T10:15:40.337Z,42.50
2019-04-16T10:18:09.700Z,41.50
2019-04-16T10:20:40.429Z,39.90
2019-04-16T10:23:15.673Z,40.30
2019-04-16T10:25:45.054Z,38.90
2019-04-16T10:28:18.656Z,38.60
2019-04-16T10:30:50.472Z,38.40
2019-04-16T10:33:20.544Z,40.20
2019-04-16T10:35:50.917Z,38.90
2019-04-16T10:38:51.279Z,39.70
2019-04-16T10:41:33.991Z,39.70
2019-04-16T10:44:18.282Z,39.80
2019-04-16T10:47:12.552Z,38.40
2019-04-16T10:49:53.603Z,40.30
2019-04-16T10:52:54.574Z,40.90
2019-04-16T10:55:36.494Z,41.80
2019-04-16T10:58:23.397Z,42.50
2019-04-16T11:01:10.419Z,40.20
2019-04-16T11:04:28.383Z,39.20
2019-04-16T11:07:15.003Z,39.40
2019-04-16T11:09:53.220Z,39.20
2019-04-16T11:12:22.927Z,40.90
2019-04-16T11:14:52.999Z,39.30
2019-04-16T11:17:26.967Z,38.00
2019-04-16T11:22:49.898Z,39.30
2019-04-16T11:25:23.432Z,39.80
2019-04-16T11:27:52.997Z,38.00
2019-04-16T11:30:41.579Z,38.00
2019-04-16T11:33:11.159Z,37.20
2019-04-16T11:35:45.767Z,38.90
2019-04-16T11:38:17.325Z,39.90
2019-04-16T11:40:46.675Z,37.90
2019-04-16T11:43:17.382Z,38.40
2019-04-16T11:45:55.005Z,37.20
2019-04-16T11:48:26.166Z,37.40
2019-04-16T11:50:58.782Z,37.70
2019-04-16T11:53:28.343Z,36.40
2019-04-16T11:56:01.577Z,36.80
2019-04-16T11:58:46.565Z,36.90
2019-04-16T12:01:37.419Z,36.50
2019-04-16T12:04:30.520Z,37.50
2019-04-16T12:07:20.563Z,36.60
2019-04-16T12:10:24.155Z,36.70
2019-04-16T12:13:13.039Z,37.00
2019-04-16T12:16:13.383Z,36.30
2019-04-16T12:19:00.485Z,36.80
2019-04-16T12:21:47.657Z,36.70
2019-04-16T12:24:48.287Z,36.60
2019-04-16T12:27:36.229Z,35.90
2019-04-16T12:30:24.572Z,35.40
2019-04-16T12:33:16.178Z,36.20
2019-04-16T12:36:14.329Z,37.10
2019-04-16T12:38:48.780Z,36.90
2019-04-16T12:41:34.262Z,37.00
2019-04-16T12:44:45.638Z,37.60
2019-04-16T12:47:18.706Z,36.20
2019-04-16T12:50:08.823Z,35.90
2019-04-16T12:52:55.817Z,35.90
2019-04-16T12:55:45.210Z,35.80
2019-04-16T12:58:34.903Z,36.90
2019-04-16T13:01:28.275Z,35.40
2019-04-16T13:04:25.086Z,35.20
2019-04-16T13:07:20.783Z,36.80
2019-04-16T13:10:16.636Z,37.20
2019-04-16T13:13:13.183Z,38.90
2019-04-16T13:16:00.582Z,37.00
2019-04-16T13:18:38.822Z,36.50
2019-04-16T13:21:14.862Z,36.90
2019-04-16T13:24:04.524Z,35.90
2019-04-16T13:26:41.065Z,36.50
2019-04-16T13:29:16.868Z,37.00
2019-04-16T13:31:47.297Z,37.20
2019-04-16T13:34:18.605Z,38.50
2019-04-16T13:36:51.882Z,39.20
2019-04-16T13:39:40.394Z,40.40
2019-04-16T13:42:11.234Z,39.40
2019-04-16T13:44:45.390Z,40.70
2019-04-16T13:47:15.205Z,39.30
2019-04-16T13:50:04.854Z,39.30
2019-04-16T13:52:35.618Z,39.20
2019-04-16T13:55:41.719Z,40.00
2019-04-16T13:58:23.011Z,39.60
2019-04-16T14:00:57.102Z,39.70
2019-04-16T14:03:47.273Z,39.60
2019-04-16T14:06:17.943Z,39.00
2019-04-16T14:08:49.078Z,38.20
2019-04-16T14:11:19.709Z,37.50
2019-04-16T14:14:18.167Z,38.50
2019-04-16T14:16:48.327Z,38.00
2019-04-16T14:19:20.589Z,38.70
2019-04-16T14:21:50.771Z,38.20
2019-04-16T14:24:21.291Z,40.20
2019-04-16T14:26:51.692Z,38.00
2019-04-16T14:29:24.732Z,36.60
2019-04-16T14:31:54.340Z,36.70
2019-04-16T14:34:44.653Z,37.70
2019-04-16T14:37:15.904Z,37.20
2019-04-16T14:40:10.786Z,36.20
2019-04-16T14:42:40.329Z,36.60
2019-04-16T14:45:53.515Z,36.90
2019-04-16T14:48:10.187Z,38.10
2019-04-16T14:50:39.808Z,37.10
2019-04-16T14:53:09.399Z,37.10
2019-04-16T14:56:06.783Z,36.50
2019-04-16T14:58:57.996Z,38.50
2019-04-16T15:01:40.100Z,36.80
2019-04-16T15:04:40.109Z,36.80
2019-04-16T15:07:24.446Z,37.10
2019-04-16T15:10:03.912Z,39.00
2019-04-16T15:12:50.330Z,37.70
2019-04-16T15:15:38.717Z,38.00
2019-04-16T15:18:19.374Z,38.20
2019-04-16T15:21:12.481Z,39.90
2019-04-16T15:24:05.713Z,39.40
2019-04-16T15:26:45.664Z,40.00
2019-04-16T15:29:20.802Z,40.10
2019-04-16T15:32:04.084Z,39.80
2019-04-16T15:34:42.778Z,40.20
2019-04-16T15:37:27.134Z,40.50
2019-04-16T15:39:59.955Z,40.50
2019-04-16T15:42:48.440Z,40.70
2019-04-16T15:45:29.779Z,40.80
2019-04-16T15:48:27.223Z,43.30
2019-04-16T15:51:18.351Z,42.40
2019-04-16T15:54:09.522Z,41.70
2019-04-16T15:56:42.125Z,42.30
2019-04-16T15:59:39.678Z,42.00
2019-04-16T16:02:30.904Z,42.10
2019-04-16T16:05:05.499Z,42.00
2019-04-16T16:07:49.374Z,42.90
2019-04-16T16:10:21.153Z,44.30
2019-04-16T16:12:50.979Z,42.80
2019-04-16T16:15:21.879Z,43.00
2019-04-16T16:17:51.315Z,42.30
2019-04-16T16:20:20.929Z,43.00
2019-04-16T16:22:50.481Z,43.30
2019-04-16T16:25:19.983Z,42.20
2019-04-16T16:27:49.506Z,42.70
2019-04-16T16:30:18.934Z,43.10
2019-04-16T16:32:48.383Z,43.30
2019-04-16T16:35:18.145Z,42.90
2019-04-16T16:37:48.188Z,44.00
2019-04-16T16:40:17.800Z,42.20
2019-04-16T16:42:47.369Z,42.30
2019-04-16T16:45:17.025Z,43.00
2019-04-16T16:47:46.546Z,42.60
2019-04-16T16:50:17.323Z,42.80
2019-04-16T16:52:56.308Z,43.20
2019-04-16T16:55:32.212Z,42.90
2019-04-16T16:58:09.864Z,44.10
2019-04-16T17:01:07.781Z,43.80
2019-04-16T17:03:53.007Z,44.00
2019-04-16T17:06:22.655Z,43.50
2019-04-16T17:08:52.234Z,44.20
2019-04-16T17:11:21.727Z,45.50
2019-04-16T17:13:51.254Z,45.10
2019-04-16T17:16:20.781Z,45.90
2019-04-16T17:18:50.304Z,46.50
2019-04-16T17:21:19.886Z,47.00
2019-04-16T17:23:49.488Z,47.10
2019-04-16T17:26:19.002Z,47.80
2019-04-16T17:28:48.582Z,47.80
2019-04-16T17:31:18.129Z,48.50
2019-04-16T17:33:47.677Z,48.80
2019-04-16T17:36:17.250Z,49.30
2019-04-16T17:38:47.103Z,49.70
2019-04-16T17:41:21.793Z,50.10
2019-04-16T17:44:08.836Z,50.40
2019-04-16T17:47:03.003Z,50.70
2019-04-16T17:49:37.359Z,51.10
2019-04-16T17:52:28.501Z,51.50
2019-04-16T17:55:19.737Z,51.70
2019-04-16T17:58:02.874Z,52.10
2019-04-16T18:00:49.879Z,52.30
2019-04-16T18:03:56.599Z,52.60
2019-04-16T18:06:56.171Z,52.50
2019-04-16T18:09:33.310Z,52.50
2019-04-16T18:12:20.719Z,52.50
2019-04-16T18:15:24.436Z,52.80
2019-04-16T18:18:08.979Z,53.20
2019-04-16T18:20:57.304Z,53.30
2019-04-16T18:23:34.412Z,53.70
2019-04-16T18:26:21.366Z,54.20
2019-04-16T18:29:03.018Z,54.10
2019-04-16T18:31:38.241Z,54.20
2019-04-16T18:34:29.516Z,55.10
2019-04-16T18:37:15.805Z,54.30
2019-04-16T18:40:05.895Z,54.40
2019-04-16T18:42:52.208Z,54.60
2019-04-16T18:45:52.396Z,54.70
2019-04-16T18:48:24.131Z,54.80
2019-04-16T18:51:00.204Z,55.00
2019-04-16T18:53:27.958Z,55.20
2019-04-16T18:55:57.519Z,55.30
2019-04-16T18:58:27.050Z,55.70
2019-04-16T19:00:59.925Z,55.80
2019-04-16T19:03:29.391Z,55.80
2019-04-16T19:05:58.896Z,56.20
2019-04-16T19:08:41.006Z,56.10
2019-04-16T19:11:00.145Z,56.20
2019-04-16T19:13:29.818Z,56.50
2019-04-16T19:15:59.455Z,56.50
2019-04-16T19:18:28.939Z,56.90
2019-04-16T19:20:58.588Z,57.00
2019-04-16T19:23:28.181Z,57.30
2019-04-16T19:25:58.830Z,57.30
2019-04-16T19:28:28.472Z,57.40
2019-04-16T19:30:57.961Z,57.20
2019-04-16T19:33:27.570Z,57.50
2019-04-16T19:35:57.095Z,57.50
2019-04-16T19:38:26.538Z,58.20
2019-04-16T19:40:56.153Z,58.00
2019-04-16T19:43:28.236Z,58.40
2019-04-16T19:45:57.337Z,58.60
2019-04-16T19:48:35.280Z,58.70
2019-04-16T19:50:58.080Z,58.90
2019-04-16T19:53:27.530Z,59.10
2019-04-16T19:55:57.041Z,59.60
2019-04-16T19:58:26.521Z,60.00
2019-04-16T20:00:57.758Z,60.60
2019-04-16T20:03:30.409Z,61.50
2019-04-16T20:06:00.236Z,62.50
2019-04-16T20:08:34.365Z,63.30
2019-04-16T20:11:01.259Z,64.20
2019-04-16T20:13:30.783Z,64.90
2019-04-16T20:16:00.789Z,65.00
2019-04-16T20:18:50.910Z,65.80
2019-04-16T20:21:11.995Z,65.50
2019-04-16T20:23:42.141Z,66.30
2019-04-16T20:26:11.801Z,66.30
2019-04-16T20:28:41.287Z,66.20
2019-04-16T20:31:10.707Z,66.40
2019-04-16T20:33:40.350Z,66.40
2019-04-16T20:36:09.854Z,66.50
2019-04-16T20:38:39.618Z,66.60
2019-04-16T20:41:09.339Z,67.50
2019-04-16T20:43:38.893Z,67.40
2019-04-16T20:46:08.831Z,67.50
2019-04-16T20:48:38.799Z,68.20
2019-04-16T20:51:08.431Z,68.80
2019-04-16T20:53:40.436Z,69.20
2019-04-16T20:56:10.739Z,69.50
2019-04-16T20:58:40.515Z,69.60
2019-04-16T21:01:10.313Z,70.30
2019-04-16T21:03:41.539Z,69.40
2019-04-16T21:06:11.079Z,69.90
2019-04-16T21:08:41.092Z,70.30
2019-04-16T21:11:10.551Z,69.80
2019-04-16T21:13:39.990Z,69.50
2019-04-16T21:16:09.446Z,70.40
2019-04-16T21:18:39.007Z,68.80
2019-04-16T21:21:08.464Z,69.00
2019-04-16T21:23:37.937Z,69.00
2019-04-16T21:26:07.498Z,69.20
2019-04-16T21:28:42.311Z,69.20
2019-04-16T21:31:17.762Z,69.30
2019-04-16T21:33:55.284Z,69.50
2019-04-16T21:36:43.837Z,70.10
2019-04-16T21:39:21.027Z,69.70
2019-04-16T21:41:50.877Z,70.20
2019-04-16T21:44:20.497Z,70.70
2019-04-16T21:46:52.311Z,71.20
2019-04-16T21:49:21.222Z,71.00
2019-04-16T21:52:09.379Z,71.10
2019-04-16T21:54:39.281Z,70.90
2019-04-16T21:57:13.184Z,70.90
2019-04-16T21:59:40.418Z,71.00
2019-04-16T22:02:34.644Z,71.10
2019-04-16T22:05:03.311Z,71.40
2019-04-16T22:07:39.001Z,71.30
2019-04-16T22:10:07.121Z,71.20
2019-04-16T22:12:36.614Z,72.70
2019-04-16T22:15:06.537Z,73.40
2019-04-16T22:17:36.792Z,72.80
2019-04-16T22:20:07.569Z,72.20
2019-04-16T22:22:37.066Z,72.50
2019-04-16T22:25:09.242Z,72.20
2019-04-16T22:27:40.909Z,72.00
2019-04-16T22:30:10.811Z,72.00
2019-04-16T22:32:40.273Z,72.80
2019-04-16T22:35:13.161Z,72.90
2019-04-16T22:37:45.075Z,72.50
2019-04-16T22:40:37.385Z,72.80
2019-04-16T22:43:32.648Z,72.90
2019-04-16T22:46:10.273Z,73.00
2019-04-16T22:48:55.095Z,72.60
2019-04-16T22:51:26.525Z,73.00
2019-04-16T22:53:56.691Z,73.00
2019-04-16T22:56:45.177Z,73.60
2019-04-16T22:59:14.705Z,73.00
2019-04-16T23:01:45.670Z,73.40
2019-04-16T23:04:15.280Z,73.70
2019-04-16T23:06:44.761Z,74.10
2019-04-16T23:09:17.250Z,74.30
2019-04-16T23:11:45.467Z,74.00
2019-04-16T23:14:14.951Z,74.40
2019-04-16T23:16:44.375Z,74.70
2019-04-16T23:19:13.834Z,74.40
2019-04-16T23:21:43.275Z,74.40
2019-04-16T23:24:12.750Z,75.40
2019-04-16T23:26:42.609Z,74.70
2019-04-16T23:29:15.606Z,74.70
2019-04-16T23:31:43.276Z,74.50
2019-04-16T23:34:12.764Z,75.90
2019-04-16T23:36:44.607Z,76.00
2019-04-16T23:39:13.438Z,75.60
2019-04-16T23:41:47.921Z,76.20
2019-04-16T23:44:28.871Z,76.10
2019-04-16T23:47:15.970Z,76.10
2019-04-16T23:49:54.834Z,77.70
2019-04-16T23:52:28.852Z,76.60
2019-04-16T23:55:05.613Z,77.70
2019-04-16T23:57:40.899Z,77.10
